createdAt,value
2017-09-29T00:00:40.424Z,1021.88
2017-09-29T00:01:40.436Z,1021.90
2017-09-29T00:02:40.438Z,1021.87
2017-09-29T00:03:40.440Z,1021.87
2017-09-29T00:04:40.445Z,1021.86
2017-09-29T00:05:40.454Z,1021.91
2017-09-29T00:06:40.453Z,1021.85
2017-09-29T00:07:40.463Z,1021.86
2017-09-29T00:08:40.470Z,1021.88
2017-09-29T00:09:40.475Z,1021.85
2017-09-29T00:10:40.484Z,1021.86
2017-09-29T00:11:40.485Z,1021.85
2017-09-29T00:12:40.488Z,1021.79
2017-09-29T00:13:40.494Z,1021.81
2017-09-29T00:14:40.504Z,1021.82
2017-09-29T00:15:40.506Z,1021.81
2017-09-29T00:16:40.512Z,1021.81
2017-09-29T00:17:40.517Z,1021.80
2017-09-29T00:18:40.521Z,1021.79
2017-09-29T00:19:40.522Z,1021.80
2017-09-29T00:20:40.538Z,1021.74
2017-09-29T00:21:40.539Z,1021.74
2017-09-29T00:22:40.547Z,1021.74
2017-09-29T00:23:40.544Z,1021.71
2017-09-29T00:24:40.552Z,1021.72
2017-09-29T00:25:40.552Z,1021.73
2017-09-29T00:26:40.562Z,1021.69
2017-09-29T00:27:40.568Z,1021.70
2017-09-29T00:28:40.571Z,1021.71
2017-09-29T00:29:40.578Z,1021.70
2017-09-29T00:30:40.593Z,1021.69
2017-09-29T00:31:40.595Z,1021.65
2017-09-29T00:32:40.599Z,1021.64
2017-09-29T00:33:40.602Z,1021.61
2017-09-29T00:34:40.602Z,1021.60
2017-09-29T00:35:40.606Z,1021.61
2017-09-29T00:36:40.616Z,1021.58
2017-09-29T00:37:40.629Z,1021.63
2017-09-29T00:38:40.633Z,1021.61
2017-09-29T00:39:40.636Z,1021.57
2017-09-29T00:40:40.634Z,1021.54
2017-09-29T00:41:40.641Z,1021.55
2017-09-29T00:42:40.649Z,1021.57
2017-09-29T00:43:40.660Z,1021.52
2017-09-29T00:44:40.655Z,1021.58
2017-09-29T00:45:40.661Z,1021.58
2017-09-29T00:46:40.665Z,1021.58
2017-09-29T00:47:40.689Z,1021.60
2017-09-29T00:48:40.676Z,1021.59
2017-09-29T00:49:40.685Z,1021.59
2017-09-29T00:50:40.687Z,1021.57
2017-09-29T00:51:40.695Z,1021.60
2017-09-29T00:52:40.703Z,1021.58
2017-09-29T00:53:40.703Z,1021.57
2017-09-29T00:54:40.747Z,1021.55
2017-09-29T00:55:40.722Z,1021.57
2017-09-29T00:56:40.720Z,1021.56
2017-09-29T00:57:40.733Z,1021.52
2017-09-29T00:58:40.727Z,1021.57
2017-09-29T00:59:40.741Z,1021.53
2017-09-29T01:00:40.748Z,1021.54
2017-09-29T01:01:40.745Z,1021.53
2017-09-29T01:02:40.749Z,1021.54
2017-09-29T01:03:40.755Z,1021.49
2017-09-29T01:04:40.770Z,1021.46
2017-09-29T01:05:40.767Z,1021.52
2017-09-29T01:06:40.775Z,1021.52
2017-09-29T01:07:40.777Z,1021.51
2017-09-29T01:08:40.782Z,1021.52
2017-09-29T01:09:40.795Z,1021.47
2017-09-29T01:10:40.798Z,1021.53
2017-09-29T01:11:40.801Z,1021.52
2017-09-29T01:12:40.807Z,1021.53
2017-09-29T01:13:40.806Z,1021.55
2017-09-29T01:14:40.816Z,1021.52
2017-09-29T01:15:40.823Z,1021.53
2017-09-29T01:16:40.826Z,1021.51
2017-09-29T01:17:40.825Z,1021.48
2017-09-29T01:18:40.835Z,1021.51
2017-09-29T01:19:40.843Z,1021.51
2017-09-29T01:20:40.841Z,1021.51
2017-09-29T01:21:40.851Z,1021.54
2017-09-29T01:22:40.853Z,1021.59
2017-09-29T01:23:40.861Z,1021.55
2017-09-29T01:24:40.865Z,1021.53
2017-09-29T01:25:40.868Z,1021.54
2017-09-29T01:26:40.876Z,1021.55
2017-09-29T01:27:40.883Z,1021.53
2017-09-29T01:28:40.884Z,1021.53
2017-09-29T01:29:40.891Z,1021.54
2017-09-29T01:30:40.894Z,1021.51
2017-09-29T01:31:40.901Z,1021.53
2017-09-29T01:32:40.905Z,1021.51
2017-09-29T01:33:40.910Z,1021.53
2017-09-29T01:34:40.933Z,1021.53
2017-09-29T01:35:40.928Z,1021.54
2017-09-29T01:36:40.930Z,1021.51
2017-09-29T01:37:40.934Z,1021.57
2017-09-29T01:38:40.935Z,1021.54
2017-09-29T01:39:40.943Z,1021.55
2017-09-29T01:40:40.949Z,1021.49
2017-09-29T01:41:40.959Z,1021.54
2017-09-29T01:42:40.962Z,1021.53
2017-09-29T01:43:40.959Z,1021.54
2017-09-29T01:44:40.967Z,1021.52
2017-09-29T01:45:40.976Z,1021.48
2017-09-29T01:46:40.977Z,1021.51
2017-09-29T01:47:40.984Z,1021.48
2017-09-29T01:48:40.993Z,1021.43
2017-09-29T01:49:40.996Z,1021.51
2017-09-29T01:50:41.008Z,1021.46
2017-09-29T01:51:41.009Z,1021.50
2017-09-29T01:52:41.004Z,1021.49
2017-09-29T01:53:41.015Z,1021.49
2017-09-29T01:54:41.016Z,1021.47
2017-09-29T01:55:41.027Z,1021.48
2017-09-29T01:56:41.032Z,1021.52
2017-09-29T01:57:41.032Z,1021.51
2017-09-29T01:58:41.040Z,1021.53
2017-09-29T01:59:41.045Z,1021.50
2017-09-29T02:00:41.050Z,1021.54
2017-09-29T02:01:41.057Z,1021.52
2017-09-29T02:02:41.058Z,1021.47
2017-09-29T02:03:41.066Z,1021.53
2017-09-29T02:04:41.074Z,1021.49
2017-09-29T02:05:41.082Z,1021.49
2017-09-29T02:06:41.084Z,1021.50
2017-09-29T02:07:41.083Z,1021.47
2017-09-29T02:08:41.090Z,1021.45
2017-09-29T02:09:41.101Z,1021.48
2017-09-29T02:10:41.100Z,1021.46
2017-09-29T02:11:41.104Z,1021.46
2017-09-29T02:12:41.117Z,1021.45
2017-09-29T02:13:41.116Z,1021.43
2017-09-29T02:14:41.119Z,1021.43
2017-09-29T02:15:41.129Z,1021.47
2017-09-29T02:16:41.132Z,1021.46
2017-09-29T02:17:41.135Z,1021.43
2017-09-29T02:18:41.141Z,1021.46
2017-09-29T02:19:41.148Z,1021.42
2017-09-29T02:20:41.152Z,1021.45
2017-09-29T02:21:41.155Z,1021.44
2017-09-29T02:22:41.165Z,1021.41
2017-09-29T02:23:41.174Z,1021.42
2017-09-29T02:24:41.174Z,1021.42
2017-09-29T02:25:41.181Z,1021.40
2017-09-29T02:26:41.182Z,1021.43
2017-09-29T02:27:41.192Z,1021.42
2017-09-29T02:28:41.190Z,1021.41
2017-09-29T02:29:41.199Z,1021.40
2017-09-29T02:30:41.205Z,1021.42
2017-09-29T02:31:41.230Z,1021.40
2017-09-29T02:32:41.220Z,1021.44
2017-09-29T02:33:41.218Z,1021.43
2017-09-29T02:34:41.223Z,1021.44
2017-09-29T02:35:41.231Z,1021.41
2017-09-29T02:36:41.232Z,1021.40
2017-09-29T02:37:41.243Z,1021.37
2017-09-29T02:38:41.242Z,1021.39
2017-09-29T02:39:41.250Z,1021.41
2017-09-29T02:40:41.256Z,1021.38
2017-09-29T02:41:41.259Z,1021.38
2017-09-29T02:42:41.262Z,1021.39
2017-09-29T02:43:41.276Z,1021.37
2017-09-29T02:44:41.274Z,1021.35
2017-09-29T02:45:41.284Z,1021.33
2017-09-29T02:46:41.286Z,1021.37
2017-09-29T02:47:41.291Z,1021.36
2017-09-29T02:48:41.304Z,1021.33
2017-09-29T02:49:41.298Z,1021.30
2017-09-29T02:50:41.307Z,1021.33
2017-09-29T02:51:41.312Z,1021.31
2017-09-29T02:52:41.322Z,1021.32
2017-09-29T02:53:41.323Z,1021.29
2017-09-29T02:54:41.323Z,1021.30
2017-09-29T02:55:41.335Z,1021.26
2017-09-29T02:56:41.335Z,1021.30
2017-09-29T02:57:41.339Z,1021.29
2017-09-29T02:58:41.345Z,1021.29
2017-09-29T02:59:41.352Z,1021.29
2017-09-29T03:00:41.355Z,1021.25
2017-09-29T03:01:41.366Z,1021.29
2017-09-29T03:02:41.366Z,1021.28
2017-09-29T03:03:41.377Z,1021.27
2017-09-29T03:04:41.374Z,1021.23
2017-09-29T03:05:41.379Z,1021.25
2017-09-29T03:06:41.386Z,1021.27
2017-09-29T03:07:41.393Z,1021.29
2017-09-29T03:08:41.393Z,1021.29
2017-09-29T03:09:41.401Z,1021.30
2017-09-29T03:10:41.406Z,1021.29
2017-09-29T03:11:41.416Z,1021.31
2017-09-29T03:12:41.419Z,1021.31
2017-09-29T03:13:41.423Z,1021.28
2017-09-29T03:14:41.422Z,1021.28
2017-09-29T03:15:41.427Z,1021.28
2017-09-29T03:16:41.435Z,1021.29
2017-09-29T03:17:41.440Z,1021.29
2017-09-29T03:18:41.444Z,1021.27
2017-09-29T03:19:41.448Z,1021.24
2017-09-29T03:20:41.459Z,1021.26
2017-09-29T03:21:41.465Z,1021.30
2017-09-29T03:22:41.475Z,1021.26
2017-09-29T03:23:41.476Z,1021.26
2017-09-29T03:24:41.474Z,1021.25
2017-09-29T03:25:41.496Z,1021.23
2017-09-29T03:26:41.483Z,1021.25
2017-09-29T03:27:41.491Z,1021.26
2017-09-29T03:28:41.495Z,1021.24
2017-09-29T03:29:41.506Z,1021.25
2017-09-29T03:30:41.505Z,1021.24
2017-09-29T03:31:41.510Z,1021.20
2017-09-29T03:32:41.518Z,1021.20
2017-09-29T03:33:41.522Z,1021.20
2017-09-29T03:34:41.523Z,1021.17
2017-09-29T03:35:41.531Z,1021.18
2017-09-29T03:36:41.534Z,1021.20
2017-09-29T03:37:41.540Z,1021.16
2017-09-29T03:38:41.546Z,1021.18
2017-09-29T03:39:41.549Z,1021.16
2017-09-29T03:40:41.553Z,1021.11
2017-09-29T03:41:41.569Z,1021.13
2017-09-29T03:42:41.565Z,1021.10
2017-09-29T03:43:41.571Z,1021.15
2017-09-29T03:44:41.573Z,1021.10
2017-09-29T03:45:41.582Z,1021.05
2017-09-29T03:46:41.615Z,1021.05
2017-09-29T03:47:41.586Z,1021.08
2017-09-29T03:48:41.594Z,1021.03
2017-09-29T03:49:41.599Z,1021.03
2017-09-29T03:50:41.608Z,1020.95
2017-09-29T03:51:41.611Z,1021.02
2017-09-29T03:52:41.615Z,1020.98
2017-09-29T03:53:41.622Z,1020.97
2017-09-29T03:54:41.623Z,1020.93
2017-09-29T03:55:41.630Z,1020.96
2017-09-29T03:56:41.636Z,1020.96
2017-09-29T03:57:41.639Z,1020.97
2017-09-29T03:58:41.646Z,1020.99
2017-09-29T03:59:41.646Z,1020.94
2017-09-29T04:00:41.655Z,1020.93
2017-09-29T04:01:41.656Z,1020.88
2017-09-29T04:02:41.662Z,1020.88
2017-09-29T04:03:41.662Z,1020.89
2017-09-29T04:04:41.673Z,1020.92
2017-09-29T04:05:41.680Z,1020.90
2017-09-29T04:06:41.682Z,1020.89
2017-09-29T04:07:41.691Z,1020.90
2017-09-29T04:08:41.691Z,1020.92
2017-09-29T04:09:41.698Z,1020.92
2017-09-29T04:10:41.703Z,1020.88
2017-09-29T04:11:41.704Z,1020.93
2017-09-29T04:12:41.713Z,1020.90
2017-09-29T04:13:41.721Z,1020.89
2017-09-29T04:14:41.722Z,1020.90
2017-09-29T04:15:41.725Z,1020.90
2017-09-29T04:16:41.733Z,1020.93
2017-09-29T04:17:41.733Z,1020.91
2017-09-29T04:18:41.737Z,1020.87
2017-09-29T04:19:41.744Z,1020.90
2017-09-29T04:20:41.753Z,1020.89
2017-09-29T04:21:41.754Z,1020.86
2017-09-29T04:22:45.812Z,1020.89
2017-09-29T04:23:41.771Z,1020.83
2017-09-29T04:24:41.774Z,1020.86
2017-09-29T04:25:41.781Z,1020.81
2017-09-29T04:26:41.786Z,1020.85
2017-09-29T04:29:13.909Z,1020.79
2017-09-29T04:30:13.876Z,1020.80
2017-09-29T04:31:13.877Z,1020.76
2017-09-29T04:32:13.880Z,1020.74
2017-09-29T04:33:13.890Z,1020.75
2017-09-29T04:34:13.896Z,1020.75
2017-09-29T04:35:13.904Z,1020.73
2017-09-29T04:36:13.901Z,1020.77
2017-09-29T04:37:13.911Z,1020.81
2017-09-29T04:38:13.914Z,1020.85
2017-09-29T04:39:13.917Z,1020.89
2017-09-29T04:40:13.926Z,1020.87
2017-09-29T04:41:13.929Z,1020.89
2017-09-29T04:42:13.933Z,1020.93
2017-09-29T04:43:13.941Z,1020.92
2017-09-29T04:44:13.942Z,1020.86
2017-09-29T04:45:13.952Z,1020.90
2017-09-29T04:46:13.951Z,1020.86
2017-09-29T04:47:13.954Z,1020.84
2017-09-29T04:48:13.963Z,1020.89
2017-09-29T04:49:13.970Z,1020.85
2017-09-29T04:50:13.974Z,1020.83
2017-09-29T04:51:13.973Z,1020.85
2017-09-29T04:52:13.977Z,1020.83
2017-09-29T04:53:13.991Z,1020.83
2017-09-29T04:54:13.994Z,1020.84
2017-09-29T04:55:13.994Z,1020.83
2017-09-29T04:56:14.001Z,1020.82
2017-09-29T04:57:14.004Z,1020.83
2017-09-29T04:58:14.007Z,1020.84
2017-09-29T04:59:14.032Z,1020.88
2017-09-29T05:00:14.025Z,1020.86
2017-09-29T05:01:14.025Z,1020.91
2017-09-29T05:02:14.034Z,1020.92
2017-09-29T05:03:14.035Z,1020.85
2017-09-29T05:04:14.041Z,1020.85
2017-09-29T05:05:14.045Z,1020.87
2017-09-29T05:06:14.054Z,1020.85
2017-09-29T05:07:14.057Z,1020.82
2017-09-29T05:08:14.062Z,1020.83
2017-09-29T05:09:14.063Z,1020.81
2017-09-29T05:10:14.067Z,1020.81
2017-09-29T05:11:14.072Z,1020.81
2017-09-29T05:12:14.082Z,1020.81
2017-09-29T05:13:14.084Z,1020.80
2017-09-29T05:14:14.097Z,1020.81
2017-09-29T05:15:14.094Z,1020.83
2017-09-29T05:16:14.099Z,1020.82
2017-09-29T05:17:14.109Z,1020.84
2017-09-29T05:18:14.104Z,1020.87
2017-09-29T05:19:14.118Z,1020.90
2017-09-29T05:20:14.116Z,1020.92
2017-09-29T05:21:14.124Z,1020.93
2017-09-29T05:22:14.133Z,1020.88
2017-09-29T05:23:16.698Z,1020.91
2017-09-29T05:24:14.139Z,1020.85
2017-09-29T05:25:14.143Z,1020.82
2017-09-29T05:26:14.142Z,1020.82
2017-09-29T05:27:14.153Z,1020.84
2017-09-29T05:28:14.155Z,1020.84
2017-09-29T05:29:14.161Z,1020.86
2017-09-29T05:30:14.158Z,1020.86
2017-09-29T05:31:14.169Z,1020.89
2017-09-29T05:32:14.179Z,1020.85
2017-09-29T05:33:14.176Z,1020.90
2017-09-29T05:34:14.182Z,1020.89
2017-09-29T05:35:14.185Z,1020.88
2017-09-29T05:36:14.198Z,1020.90
2017-09-29T05:37:14.196Z,1020.87
2017-09-29T05:38:14.220Z,1020.94
2017-09-29T05:39:14.207Z,1020.90
2017-09-29T05:40:14.212Z,1020.93
2017-09-29T05:41:14.215Z,1020.92
2017-09-29T05:42:14.221Z,1020.95
2017-09-29T05:43:14.227Z,1020.97
2017-09-29T05:44:14.232Z,1020.95
2017-09-29T05:45:14.240Z,1020.97
2017-09-29T05:46:14.263Z,1020.99
2017-09-29T05:47:14.243Z,1020.98
2017-09-29T05:48:14.308Z,1021.00
2017-09-29T05:49:14.252Z,1021.04
2017-09-29T05:50:14.261Z,1020.99
2017-09-29T05:51:14.262Z,1020.98
2017-09-29T05:52:14.270Z,1020.99
2017-09-29T05:53:14.280Z,1020.99
2017-09-29T05:54:14.273Z,1021.01
2017-09-29T05:55:14.283Z,1020.98
2017-09-29T05:56:14.284Z,1021.00
2017-09-29T05:57:14.294Z,1020.99
2017-09-29T05:58:14.296Z,1020.98
2017-09-29T05:59:14.299Z,1020.98
2017-09-29T06:00:14.303Z,1021.00
2017-09-29T06:01:14.317Z,1021.00
2017-09-29T06:02:14.350Z,1020.99
2017-09-29T06:03:14.328Z,1021.00
2017-09-29T06:04:14.328Z,1020.98
2017-09-29T06:05:14.328Z,1021.00
2017-09-29T06:06:14.334Z,1020.99
2017-09-29T06:07:17.190Z,1021.01
2017-09-29T06:08:14.345Z,1020.98
2017-09-29T06:09:14.348Z,1020.99
2017-09-29T06:10:14.350Z,1020.98
2017-09-29T06:11:14.364Z,1020.98
2017-09-29T06:12:14.376Z,1020.96
2017-09-29T06:13:14.367Z,1020.96
2017-09-29T06:14:14.373Z,1020.98
2017-09-29T06:15:14.384Z,1021.00
2017-09-29T06:16:14.385Z,1021.01
2017-09-29T06:17:14.390Z,1021.04
2017-09-29T06:18:14.392Z,1020.99
2017-09-29T06:19:14.401Z,1021.01
2017-09-29T06:20:14.405Z,1021.03
2017-09-29T06:21:14.405Z,1021.06
2017-09-29T06:22:14.415Z,1021.06
2017-09-29T06:23:14.414Z,1021.05
2017-09-29T06:24:14.422Z,1021.04
2017-09-29T06:25:14.428Z,1021.05
2017-09-29T06:26:14.430Z,1021.05
2017-09-29T06:27:14.435Z,1021.05
2017-09-29T06:28:14.438Z,1021.02
2017-09-29T06:29:14.447Z,1021.03
2017-09-29T06:30:14.451Z,1020.97
2017-09-29T06:31:14.457Z,1020.98
2017-09-29T06:32:14.469Z,1021.03
2017-09-29T06:33:14.465Z,1020.98
2017-09-29T06:34:14.474Z,1021.02
2017-09-29T06:35:14.479Z,1021.07
2017-09-29T06:36:14.482Z,1021.04
2017-09-29T06:37:14.488Z,1021.09
2017-09-29T06:38:14.490Z,1021.07
2017-09-29T06:39:14.497Z,1021.06
2017-09-29T06:40:14.509Z,1021.10
2017-09-29T06:41:14.509Z,1021.10
2017-09-29T06:42:14.515Z,1021.09
2017-09-29T06:43:14.523Z,1021.11
2017-09-29T06:44:14.524Z,1021.08
2017-09-29T06:45:14.527Z,1021.09
2017-09-29T06:46:14.532Z,1021.09
2017-09-29T06:47:14.543Z,1021.09
2017-09-29T06:48:14.539Z,1021.09
2017-09-29T06:49:14.546Z,1021.07
2017-09-29T06:50:14.546Z,1021.06
2017-09-29T06:51:14.554Z,1021.06
2017-09-29T06:52:14.561Z,1021.05
2017-09-29T06:53:14.573Z,1021.02
2017-09-29T06:54:14.572Z,1021.02
2017-09-29T06:55:14.581Z,1021.04
2017-09-29T06:56:14.583Z,1021.00
2017-09-29T06:57:14.590Z,1021.01
2017-09-29T06:58:14.598Z,1021.03
2017-09-29T06:59:14.598Z,1021.02
2017-09-29T07:00:14.602Z,1020.99
2017-09-29T07:01:14.622Z,1020.98
2017-09-29T07:02:14.617Z,1021.00
2017-09-29T07:03:14.618Z,1020.96
2017-09-29T07:04:14.629Z,1021.01
2017-09-29T07:05:14.631Z,1020.99
2017-09-29T07:06:14.634Z,1020.94
2017-09-29T07:07:14.639Z,1020.98
2017-09-29T07:08:14.645Z,1020.99
2017-09-29T07:09:14.646Z,1021.00
2017-09-29T07:10:14.656Z,1020.97
2017-09-29T07:11:14.659Z,1020.99
2017-09-29T07:12:14.665Z,1020.99
2017-09-29T07:13:14.674Z,1020.99
2017-09-29T07:14:14.677Z,1021.01
2017-09-29T07:15:14.682Z,1021.00
2017-09-29T07:16:14.688Z,1021.02
2017-09-29T07:17:14.696Z,1021.02
2017-09-29T07:18:14.698Z,1021.00
2017-09-29T07:19:14.701Z,1021.00
2017-09-29T07:20:14.706Z,1021.02
2017-09-29T07:21:14.718Z,1020.99
2017-09-29T07:22:14.717Z,1021.01
2017-09-29T07:23:14.726Z,1021.01
2017-09-29T07:24:14.729Z,1021.02
2017-09-29T07:25:14.733Z,1021.02
2017-09-29T07:26:14.741Z,1021.03
2017-09-29T07:27:14.747Z,1021.07
2017-09-29T07:28:14.749Z,1021.07
2017-09-29T07:29:14.759Z,1021.09
2017-09-29T07:30:14.768Z,1021.08
2017-09-29T07:31:14.767Z,1021.08
2017-09-29T07:32:14.779Z,1021.05
2017-09-29T07:33:14.776Z,1021.06
2017-09-29T07:34:14.783Z,1021.06
2017-09-29T07:35:14.788Z,1021.08
2017-09-29T07:36:14.797Z,1021.06
2017-09-29T07:37:14.804Z,1021.13
2017-09-29T07:38:14.809Z,1021.13
2017-09-29T07:39:14.808Z,1021.11
2017-09-29T07:40:14.816Z,1021.11
2017-09-29T07:41:14.825Z,1021.11
2017-09-29T07:42:14.833Z,1021.13
2017-09-29T07:43:14.834Z,1021.12
2017-09-29T07:44:14.837Z,1021.11
2017-09-29T07:45:14.849Z,1021.09
2017-09-29T07:46:14.849Z,1021.10
2017-09-29T07:47:14.859Z,1021.11
2017-09-29T07:48:14.872Z,1021.11
2017-09-29T07:49:14.878Z,1021.11
2017-09-29T07:50:14.872Z,1021.09
2017-09-29T07:51:14.882Z,1021.10
2017-09-29T07:52:14.884Z,1021.11
2017-09-29T07:53:14.893Z,1021.04
2017-09-29T07:54:14.898Z,1021.03
2017-09-29T07:55:14.900Z,1021.07
2017-09-29T07:56:14.906Z,1021.07
2017-09-29T07:57:14.915Z,1021.06
2017-09-29T07:58:14.923Z,1021.11
2017-09-29T07:59:14.925Z,1021.09
2017-09-29T08:00:14.933Z,1021.10
2017-09-29T08:01:14.939Z,1021.12
2017-09-29T08:02:14.942Z,1021.11
2017-09-29T08:03:14.950Z,1021.14
2017-09-29T08:04:14.954Z,1021.12
2017-09-29T08:05:14.957Z,1021.12
2017-09-29T08:06:14.966Z,1021.14
2017-09-29T08:07:15.045Z,1021.09
2017-09-29T08:08:14.982Z,1021.14
2017-09-29T08:09:14.983Z,1021.13
2017-09-29T08:10:14.989Z,1021.13
2017-09-29T08:11:14.997Z,1021.13
2017-09-29T08:12:15.001Z,1021.10
2017-09-29T08:13:15.007Z,1021.08
2017-09-29T08:14:15.016Z,1021.06
2017-09-29T08:15:15.023Z,1021.06
2017-09-29T08:16:15.025Z,1021.06
2017-09-29T08:17:15.032Z,1021.03
2017-09-29T08:18:15.036Z,1021.03
2017-09-29T08:19:15.047Z,1021.01
2017-09-29T08:20:15.087Z,1021.04
2017-09-29T08:21:15.057Z,1020.97
2017-09-29T08:22:15.061Z,1021.02
2017-09-29T08:23:15.066Z,1020.99
2017-09-29T08:24:15.074Z,1020.96
2017-09-29T08:25:15.085Z,1021.00
2017-09-29T08:26:15.305Z,1021.01
2017-09-29T08:27:15.091Z,1020.95
2017-09-29T08:28:15.097Z,1020.97
2017-09-29T08:29:15.106Z,1020.98
2017-09-29T08:30:15.111Z,1020.97
2017-09-29T08:31:15.116Z,1020.96
2017-09-29T08:32:15.126Z,1020.97
2017-09-29T08:33:15.125Z,1021.01
2017-09-29T08:34:15.134Z,1020.97
2017-09-29T08:35:15.140Z,1020.94
2017-09-29T08:36:15.154Z,1020.95
2017-09-29T08:37:15.149Z,1020.99
2017-09-29T08:38:15.155Z,1020.97
2017-09-29T08:39:15.164Z,1020.95
2017-09-29T08:40:15.182Z,1020.94
2017-09-29T08:41:15.175Z,1020.90
2017-09-29T08:42:16.450Z,1020.93
2017-09-29T08:43:15.191Z,1020.86
2017-09-29T08:44:15.199Z,1020.88
2017-09-29T08:45:15.203Z,1020.83
2017-09-29T08:46:15.209Z,1020.84
2017-09-29T08:47:15.218Z,1020.87
2017-09-29T08:48:15.223Z,1020.86
2017-09-29T08:49:15.231Z,1020.87
2017-09-29T08:50:15.233Z,1020.85
2017-09-29T08:51:15.242Z,1020.86
2017-09-29T08:52:15.247Z,1020.87
2017-09-29T08:53:15.257Z,1020.87
2017-09-29T08:54:15.257Z,1020.88
2017-09-29T08:55:15.266Z,1020.87
2017-09-29T08:56:15.273Z,1020.84
2017-09-29T08:57:15.281Z,1020.83
2017-09-29T08:58:15.289Z,1020.83
2017-09-29T08:59:15.289Z,1020.82
2017-09-29T09:00:15.295Z,1020.77
2017-09-29T09:01:15.315Z,1020.84
2017-09-29T09:02:15.313Z,1020.79
2017-09-29T09:03:15.318Z,1020.84
2017-09-29T09:04:15.323Z,1020.82
2017-09-29T09:05:15.333Z,1020.80
2017-09-29T09:06:15.342Z,1020.84
2017-09-29T09:07:15.340Z,1020.82
2017-09-29T09:08:15.357Z,1020.83
2017-09-29T09:09:15.357Z,1020.83
2017-09-29T09:10:15.368Z,1020.81
2017-09-29T09:11:15.373Z,1020.83
2017-09-29T09:12:15.373Z,1020.81
2017-09-29T09:13:15.380Z,1020.80
2017-09-29T09:14:15.389Z,1020.79
2017-09-29T09:15:15.395Z,1020.79
2017-09-29T09:16:15.399Z,1020.80
2017-09-29T09:17:15.409Z,1020.78
2017-09-29T09:18:15.416Z,1020.79
2017-09-29T09:19:15.423Z,1020.77
2017-09-29T09:20:15.425Z,1020.73
2017-09-29T09:21:15.441Z,1020.69
2017-09-29T09:22:15.440Z,1020.69
2017-09-29T09:23:15.456Z,1020.69
2017-09-29T09:24:15.455Z,1020.65
2017-09-29T09:25:15.463Z,1020.66
2017-09-29T09:26:15.474Z,1020.64
2017-09-29T09:27:15.475Z,1020.68
2017-09-29T09:28:15.483Z,1020.65
2017-09-29T09:29:15.491Z,1020.64
2017-09-29T09:30:15.757Z,1020.65
2017-09-29T09:31:15.504Z,1020.67
2017-09-29T09:32:15.506Z,1020.66
2017-09-29T09:33:15.516Z,1020.65
2017-09-29T09:34:15.523Z,1020.62
2017-09-29T09:35:15.530Z,1020.59
2017-09-29T09:36:15.538Z,1020.63
2017-09-29T09:37:15.543Z,1020.62
2017-09-29T09:38:15.549Z,1020.58
2017-09-29T09:39:15.554Z,1020.57
2017-09-29T09:40:15.567Z,1020.60
2017-09-29T09:41:15.573Z,1020.57
2017-09-29T09:42:15.611Z,1020.59
2017-09-29T09:43:15.588Z,1020.59
2017-09-29T09:44:15.590Z,1020.53
2017-09-29T09:45:15.604Z,1020.57
2017-09-29T09:46:15.606Z,1020.57
2017-09-29T09:47:15.616Z,1020.54
2017-09-29T09:48:15.623Z,1020.54
2017-09-29T09:49:15.632Z,1020.52
2017-09-29T09:50:15.642Z,1020.56
2017-09-29T09:51:15.646Z,1020.54
2017-09-29T09:52:15.654Z,1020.51
2017-09-29T09:53:15.665Z,1020.52
2017-09-29T09:55:47.795Z,1020.52
2017-09-29T09:56:47.763Z,1020.53
2017-09-29T09:57:47.765Z,1020.50
2017-09-29T09:58:47.771Z,1020.54
2017-09-29T09:59:47.779Z,1020.55
2017-09-29T10:00:47.785Z,1020.51
2017-09-29T10:01:47.797Z,1020.49
2017-09-29T10:02:47.812Z,1020.47
2017-09-29T10:03:47.811Z,1020.45
2017-09-29T10:04:47.817Z,1020.44
2017-09-29T10:05:47.930Z,1020.43
2017-09-29T10:06:47.829Z,1020.42
2017-09-29T10:07:47.850Z,1020.45
2017-09-29T10:08:47.865Z,1020.43
2017-09-29T10:09:47.851Z,1020.46
2017-09-29T10:10:47.863Z,1020.43
2017-09-29T10:11:47.865Z,1020.42
2017-09-29T10:12:47.876Z,1020.43
2017-09-29T10:13:47.888Z,1020.40
2017-09-29T10:14:47.889Z,1020.37
2017-09-29T10:15:47.896Z,1020.36
2017-09-29T10:16:47.904Z,1020.39
2017-09-29T10:17:47.912Z,1020.36
2017-09-29T10:18:47.923Z,1020.33
2017-09-29T10:19:47.927Z,1020.25
2017-09-29T10:20:47.935Z,1020.26
2017-09-29T10:21:47.941Z,1020.23
2017-09-29T10:22:47.954Z,1020.22
2017-09-29T10:23:47.956Z,1020.22
2017-09-29T10:24:47.968Z,1020.21
2017-09-29T10:25:47.972Z,1020.23
2017-09-29T10:26:47.985Z,1020.18
2017-09-29T10:27:47.985Z,1020.20
2017-09-29T10:28:47.995Z,1020.17
2017-09-29T10:29:48.005Z,1020.21
2017-09-29T10:30:48.012Z,1020.19
2017-09-29T10:31:48.021Z,1020.18
2017-09-29T10:32:48.033Z,1020.18
2017-09-29T10:33:48.037Z,1020.14
2017-09-29T10:34:48.039Z,1020.16
2017-09-29T10:35:48.052Z,1020.11
2017-09-29T10:36:48.206Z,1020.13
2017-09-29T10:37:48.070Z,1020.16
2017-09-29T10:38:48.075Z,1020.10
2017-09-29T10:39:48.096Z,1020.12
2017-09-29T10:40:48.101Z,1020.14
2017-09-29T10:41:48.107Z,1020.10
2017-09-29T10:42:48.101Z,1020.13
2017-09-29T10:43:48.112Z,1020.10
2017-09-29T10:44:48.118Z,1020.12
2017-09-29T10:45:48.129Z,1020.09
2017-09-29T10:46:48.137Z,1020.07
2017-09-29T10:47:48.151Z,1020.09
2017-09-29T10:48:48.158Z,1020.09
2017-09-29T10:49:48.160Z,1020.08
2017-09-29T10:50:48.169Z,1020.08
2017-09-29T10:51:48.176Z,1020.05
2017-09-29T10:52:48.191Z,1020.07
2017-09-29T10:53:48.193Z,1020.05
2017-09-29T10:54:48.202Z,1020.05
2017-09-29T10:55:48.208Z,1020.07
2017-09-29T10:56:48.214Z,1020.03
2017-09-29T10:57:48.227Z,1020.01
2017-09-29T10:58:48.230Z,1020.01
2017-09-29T10:59:48.249Z,1020.00
2017-09-29T11:00:48.249Z,1019.96
2017-09-29T11:01:48.256Z,1019.97
2017-09-29T11:02:48.269Z,1019.98
2017-09-29T11:03:48.279Z,1019.99
2017-09-29T11:04:48.286Z,1019.96
2017-09-29T11:05:48.294Z,1019.96
2017-09-29T11:06:48.295Z,1019.95
2017-09-29T11:07:48.314Z,1019.96
2017-09-29T11:08:48.318Z,1019.89
2017-09-29T11:09:48.325Z,1019.91
2017-09-29T11:10:48.334Z,1019.93
2017-09-29T11:11:48.340Z,1019.87
2017-09-29T11:12:48.355Z,1019.86
2017-09-29T11:13:48.354Z,1019.85
2017-09-29T11:14:48.388Z,1019.86
2017-09-29T11:15:48.375Z,1019.86
2017-09-29T11:16:48.385Z,1019.87
2017-09-29T11:17:48.389Z,1019.85
2017-09-29T11:18:48.400Z,1019.86
2017-09-29T11:19:48.410Z,1019.89
2017-09-29T11:20:48.415Z,1019.89
2017-09-29T11:21:48.426Z,1019.88
2017-09-29T11:22:48.432Z,1019.88
2017-09-29T11:23:48.444Z,1019.80
2017-09-29T11:24:48.456Z,1019.78
2017-09-29T11:25:48.456Z,1019.78
2017-09-29T11:26:48.466Z,1019.79
2017-09-29T11:27:48.782Z,1019.79
2017-09-29T11:28:48.484Z,1019.79
2017-09-29T11:29:48.499Z,1019.80
2017-09-29T11:30:48.503Z,1019.73
2017-09-29T11:31:48.506Z,1019.71
2017-09-29T11:32:48.555Z,1019.72
2017-09-29T11:33:48.521Z,1019.70
2017-09-29T11:34:48.532Z,1019.72
2017-09-29T11:35:48.542Z,1019.67
2017-09-29T11:36:48.556Z,1019.67
2017-09-29T11:37:48.580Z,1019.69
2017-09-29T11:38:48.662Z,1019.66
2017-09-29T11:39:48.573Z,1019.66
2017-09-29T11:40:48.584Z,1019.61
2017-09-29T11:41:48.965Z,1019.66
2017-09-29T11:42:48.602Z,1019.63
2017-09-29T11:43:48.615Z,1019.62
2017-09-29T11:44:48.621Z,1019.59
2017-09-29T11:45:48.636Z,1019.59
2017-09-29T11:46:48.636Z,1019.57
2017-09-29T11:47:48.646Z,1019.53
2017-09-29T11:48:48.655Z,1019.52
2017-09-29T11:49:48.664Z,1019.50
2017-09-29T11:50:48.686Z,1019.47
2017-09-29T11:51:48.681Z,1019.46
2017-09-29T11:52:48.690Z,1019.42
2017-09-29T11:53:48.699Z,1019.47
2017-09-29T11:54:48.717Z,1019.45
2017-09-29T11:55:48.718Z,1019.46
2017-09-29T11:56:48.724Z,1019.43
2017-09-29T11:57:48.735Z,1019.41
2017-09-29T11:58:48.743Z,1019.42
2017-09-29T11:59:48.755Z,1019.43
2017-09-29T12:00:48.769Z,1019.38
2017-09-29T12:01:48.772Z,1019.39
2017-09-29T12:02:48.781Z,1019.34
2017-09-29T12:03:48.789Z,1019.34
2017-09-29T12:04:48.796Z,1019.30
2017-09-29T12:05:48.805Z,1019.29
2017-09-29T12:06:48.823Z,1019.40
2017-09-29T12:07:48.826Z,1019.34
2017-09-29T12:08:48.852Z,1019.34